X  Schliessen METAR Luftfahrt Wetterdaten     LSZB Bern-Belp Airport
Temperatur
18°C Temperatur
13°C Taupunkt
73% Feuchtigkeit



Wind
10 km/h
6 mph
3 m/s
5 kts



290°
WNW
Aktuelle Wetterlage

Teilweise bewölkt Teilweise bewölkt
Luftdruck 1014.9 (hPa) - 29.97 (inHg)
Sichtweite 6 (Meile) - 9.7 (km)
Flughafen
Flughafen Code LSZB

Position: Bern-Belp Airport
Entfernung: 45 (km)

Metar:
LSZB 141150Z 29005KT 230V330 9999 FEW050 SCT070 BKN080 18/13 Q1015

Zeit: 14-06-2024 13:50 CEST